createdAt,value
2019-06-15T00:02:08.700Z,1.93
2019-06-15T00:04:36.184Z,1.37
2019-06-15T00:07:04.556Z,1.30
2019-06-15T00:09:32.005Z,1.63
2019-06-15T00:11:59.457Z,1.47
2019-06-15T00:14:26.928Z,2.63
2019-06-15T00:16:55.154Z,1.37
2019-06-15T00:19:23.395Z,1.20
2019-06-15T00:21:50.861Z,1.57
2019-06-15T00:24:18.328Z,1.27
2019-06-15T00:26:45.789Z,2.43
2019-06-15T00:29:14.379Z,3.60
2019-06-15T00:31:41.842Z,1.30
2019-06-15T00:34:09.328Z,3.27
2019-06-15T00:36:36.786Z,1.20
2019-06-15T00:39:04.254Z,1.30
2019-06-15T00:41:31.716Z,1.50
2019-06-15T00:43:59.164Z,1.27
2019-06-15T00:46:26.629Z,1.33
2019-06-15T00:48:54.092Z,1.13
2019-06-15T00:51:21.555Z,1.20
2019-06-15T00:53:49.028Z,1.40
2019-06-15T00:56:16.503Z,5.10
2019-06-15T00:58:43.956Z,1.30
2019-06-15T01:01:11.399Z,1.50
2019-06-15T01:03:38.884Z,2.37
2019-06-15T01:06:07.504Z,1.80
2019-06-15T01:08:35.739Z,1.30
2019-06-15T01:11:04.286Z,1.47
2019-06-15T01:13:31.756Z,3.07
2019-06-15T01:15:59.257Z,1.40
2019-06-15T01:18:26.675Z,1.20
2019-06-15T01:20:54.128Z,1.43
2019-06-15T01:23:21.595Z,1.83
2019-06-15T01:25:49.078Z,2.80
2019-06-15T01:28:16.555Z,2.20
2019-06-15T01:30:44.027Z,1.70
2019-06-15T01:33:11.510Z,3.13
2019-06-15T01:35:38.967Z,1.60
2019-06-15T01:38:06.416Z,2.50
2019-06-15T01:40:33.889Z,5.67
2019-06-15T01:43:01.344Z,5.23
2019-06-15T01:45:29.577Z,3.33
2019-06-15T01:47:57.059Z,2.53
2019-06-15T01:50:24.532Z,3.03
2019-06-15T01:52:52.018Z,1.70
2019-06-15T01:55:21.100Z,1.67
2019-06-15T01:57:46.912Z,1.97
2019-06-15T02:00:27.101Z,4.15
2019-06-15T02:02:54.566Z,3.07
2019-06-15T02:05:22.804Z,2.23
2019-06-15T02:07:51.385Z,2.03
2019-06-15T02:10:18.870Z,2.47
2019-06-15T02:12:46.336Z,4.40
2019-06-15T02:15:13.839Z,2.30
2019-06-15T02:17:42.085Z,2.50
2019-06-15T02:20:10.298Z,5.33
2019-06-15T02:22:38.818Z,2.57
2019-06-15T02:25:06.318Z,4.57
2019-06-15T02:27:33.764Z,3.87
2019-06-15T02:30:01.235Z,3.90
2019-06-15T02:32:28.702Z,3.60
2019-06-15T02:34:56.160Z,3.53
2019-06-15T02:37:23.623Z,3.37
2019-06-15T02:39:52.236Z,3.07
2019-06-15T02:42:19.686Z,3.87
2019-06-15T02:44:47.168Z,5.73
2019-06-15T02:47:14.618Z,6.63
2019-06-15T02:49:42.075Z,5.07
2019-06-15T02:52:10.333Z,3.30
2019-06-15T02:54:38.365Z,5.07
2019-06-15T02:57:06.598Z,4.70
2019-06-15T02:59:34.078Z,5.63
2019-06-15T03:02:01.578Z,4.67
2019-06-15T03:04:29.800Z,4.87
2019-06-15T03:06:57.457Z,4.33
2019-06-15T03:09:26.038Z,7.83
2019-06-15T03:11:53.502Z,6.93
2019-06-15T03:14:21.197Z,6.10
2019-06-15T03:16:48.690Z,3.77
2019-06-15T03:19:16.145Z,4.00
2019-06-15T03:21:43.619Z,4.50
2019-06-15T03:24:11.087Z,3.17
2019-06-15T03:26:39.309Z,4.87
2019-06-15T03:29:06.768Z,6.30
2019-06-15T03:31:34.242Z,3.57
2019-06-15T03:34:01.720Z,8.30
2019-06-15T03:36:30.344Z,4.80
2019-06-15T03:38:57.798Z,5.27
2019-06-15T03:41:26.396Z,3.07
2019-06-15T03:43:53.894Z,5.17
2019-06-15T03:46:21.336Z,3.97
2019-06-15T03:48:49.588Z,4.40
2019-06-15T03:51:17.074Z,3.57
2019-06-15T03:53:45.301Z,5.23
2019-06-15T03:56:21.686Z,5.83
2019-06-15T03:58:41.334Z,4.47
2019-06-15T04:01:16.527Z,2.07
2019-06-15T04:03:45.134Z,2.00
2019-06-15T04:06:13.355Z,2.10
2019-06-15T04:08:41.951Z,2.27
2019-06-15T04:11:09.412Z,4.70
2019-06-15T04:13:36.868Z,1.90
2019-06-15T04:16:05.452Z,3.63
2019-06-15T04:18:32.928Z,2.67
2019-06-15T04:21:00.414Z,2.87
2019-06-15T04:23:27.862Z,2.47
2019-06-15T04:25:55.323Z,1.77
2019-06-15T04:28:22.912Z,4.87
2019-06-15T04:30:50.360Z,2.93
2019-06-15T04:33:17.822Z,2.67
2019-06-15T04:35:45.275Z,3.53
2019-06-15T04:38:12.776Z,2.10
2019-06-15T04:40:41.363Z,1.53
2019-06-15T04:43:10.076Z,1.80
2019-06-15T04:45:37.658Z,2.33
2019-06-15T04:48:05.108Z,2.57
2019-06-15T04:50:32.560Z,1.47
2019-06-15T04:53:00.773Z,3.93
2019-06-15T04:55:29.384Z,3.07
2019-06-15T04:57:56.840Z,1.50
2019-06-15T05:00:24.305Z,4.50
2019-06-15T05:02:51.768Z,1.77
2019-06-15T05:05:19.241Z,1.70
2019-06-15T05:07:46.698Z,3.00
2019-06-15T05:10:14.145Z,4.63
2019-06-15T05:12:41.601Z,4.13
2019-06-15T05:15:09.057Z,2.20
2019-06-15T05:17:36.511Z,5.20
2019-06-15T05:20:03.981Z,2.97
2019-06-15T05:22:31.426Z,2.10
2019-06-15T05:24:58.879Z,2.47
2019-06-15T05:27:27.104Z,2.60
2019-06-15T05:29:56.575Z,2.57
2019-06-15T05:32:22.044Z,2.73
2019-06-15T05:34:50.251Z,3.43
2019-06-15T05:37:17.704Z,2.17
2019-06-15T05:39:45.204Z,2.40
2019-06-15T05:42:13.817Z,1.40
2019-06-15T05:44:41.279Z,1.37
2019-06-15T05:47:08.750Z,4.63
2019-06-15T05:49:36.200Z,3.10
2019-06-15T05:52:04.735Z,2.80
2019-06-15T05:54:32.198Z,1.83
2019-06-15T05:56:59.642Z,3.03
2019-06-15T05:59:27.108Z,2.13
2019-06-15T06:01:54.577Z,1.40
2019-06-15T06:04:22.012Z,1.30
2019-06-15T06:06:49.495Z,1.60
2019-06-15T06:09:16.944Z,2.00
2019-06-15T06:11:44.404Z,5.03
2019-06-15T06:14:11.881Z,1.73
2019-06-15T06:16:40.264Z,1.93
2019-06-15T06:19:07.728Z,1.60
2019-06-15T06:21:35.196Z,3.07
2019-06-15T06:24:03.586Z,3.40
2019-06-15T06:26:31.042Z,1.30
2019-06-15T06:28:58.502Z,1.00
2019-06-15T06:31:25.990Z,2.37
2019-06-15T06:33:53.435Z,1.27
2019-06-15T06:36:20.985Z,2.17
2019-06-15T06:38:48.368Z,2.07
2019-06-15T06:41:15.818Z,1.40
2019-06-15T06:43:43.291Z,2.30
2019-06-15T06:46:10.739Z,1.70
2019-06-15T06:48:38.959Z,1.20
2019-06-15T06:51:07.186Z,1.10
2019-06-15T06:53:34.632Z,3.00
2019-06-15T06:56:02.124Z,1.47
2019-06-15T06:58:29.591Z,1.60
2019-06-15T07:00:57.021Z,2.73
2019-06-15T07:03:24.463Z,3.67
2019-06-15T07:05:52.699Z,3.57
2019-06-15T07:08:20.164Z,4.20
2019-06-15T07:10:47.620Z,4.37
2019-06-15T07:13:15.824Z,2.70
2019-06-15T07:15:43.364Z,2.53
2019-06-15T07:18:11.958Z,4.20
2019-06-15T07:20:39.420Z,2.53
2019-06-15T07:23:06.888Z,5.17
2019-06-15T07:25:34.350Z,3.10
2019-06-15T07:28:07.859Z,2.10
2019-06-15T07:30:31.805Z,3.33
2019-06-15T07:32:59.255Z,1.60
2019-06-15T07:35:26.701Z,2.23
2019-06-15T07:37:54.144Z,2.37
2019-06-15T07:40:22.368Z,4.47
2019-06-15T07:42:49.830Z,2.93
2019-06-15T07:45:17.291Z,2.97
2019-06-15T07:47:44.740Z,2.20
2019-06-15T07:50:12.196Z,1.93
2019-06-15T07:52:39.731Z,2.57
2019-06-15T07:55:08.314Z,2.33
2019-06-15T07:57:35.756Z,3.83
2019-06-15T08:00:07.583Z,2.63
2019-06-15T08:02:35.047Z,2.17
2019-06-15T08:05:04.150Z,3.93
2019-06-15T08:07:31.593Z,4.27
2019-06-15T08:10:00.336Z,3.80
2019-06-15T08:12:27.776Z,4.23
2019-06-15T08:14:55.232Z,2.80
2019-06-15T08:17:22.687Z,2.37
2019-06-15T08:19:50.131Z,2.03
2019-06-15T08:22:18.350Z,3.47
2019-06-15T08:24:45.826Z,3.77
2019-06-15T08:27:13.288Z,6.60
2019-06-15T08:29:41.507Z,3.23
2019-06-15T08:32:09.732Z,3.57
2019-06-15T08:34:37.179Z,4.93
2019-06-15T08:37:04.626Z,2.90
2019-06-15T08:39:32.088Z,6.90
2019-06-15T08:42:00.297Z,2.50
2019-06-15T08:44:27.747Z,3.90
2019-06-15T08:46:55.238Z,4.50
2019-06-15T08:49:23.573Z,4.93
2019-06-15T08:51:51.792Z,6.57
2019-06-15T08:54:19.234Z,3.20
2019-06-15T08:56:47.852Z,6.03
2019-06-15T08:59:15.298Z,5.63
2019-06-15T09:01:42.759Z,3.17
2019-06-15T09:04:10.216Z,7.07
2019-06-15T09:06:37.734Z,3.83
2019-06-15T09:09:05.135Z,4.43
2019-06-15T09:11:32.582Z,6.00
2019-06-15T09:14:00.780Z,4.77
2019-06-15T09:16:28.239Z,4.20
2019-06-15T09:18:57.573Z,6.53
2019-06-15T09:21:23.925Z,6.53
2019-06-15T09:23:51.383Z,8.30
2019-06-15T09:26:19.972Z,6.30
2019-06-15T09:28:48.194Z,5.77
2019-06-15T09:31:16.413Z,7.90
2019-06-15T09:33:43.868Z,6.00
2019-06-15T09:36:11.314Z,10.50
2019-06-15T09:38:38.752Z,4.93
2019-06-15T09:41:06.974Z,6.23
2019-06-15T09:43:34.443Z,2.80
2019-06-15T09:46:01.891Z,4.90
2019-06-15T09:48:29.360Z,4.13
2019-06-15T09:50:56.832Z,6.73
2019-06-15T09:53:24.284Z,5.37
2019-06-15T09:55:51.732Z,2.50
2019-06-15T09:58:19.193Z,5.47
2019-06-15T10:00:46.669Z,3.57
2019-06-15T10:03:14.122Z,5.13
2019-06-15T10:05:41.559Z,5.67
2019-06-15T10:08:08.999Z,3.80
2019-06-15T10:10:36.521Z,8.43
2019-06-15T10:13:03.970Z,3.33
2019-06-15T10:15:31.438Z,3.80
2019-06-15T10:17:59.655Z,3.33
2019-06-15T10:20:27.285Z,6.07
2019-06-15T10:22:54.594Z,2.83
2019-06-15T10:25:22.064Z,2.43
2019-06-15T10:27:49.528Z,6.53
2019-06-15T10:30:16.962Z,3.30
2019-06-15T10:32:45.169Z,3.57
2019-06-15T10:35:12.599Z,3.83
2019-06-15T10:37:40.040Z,8.87
2019-06-15T10:40:07.547Z,3.07
2019-06-15T10:42:34.987Z,3.47
2019-06-15T10:45:02.437Z,6.63
2019-06-15T10:47:29.886Z,3.40
2019-06-15T10:49:58.078Z,4.10
2019-06-15T10:52:25.638Z,4.27
2019-06-15T10:54:54.216Z,3.67
2019-06-15T10:57:22.801Z,4.23
2019-06-15T10:59:57.405Z,3.33
2019-06-15T11:02:17.669Z,4.33
2019-06-15T11:04:45.883Z,6.03
2019-06-15T11:07:14.118Z,4.03
2019-06-15T11:09:42.700Z,2.70
2019-06-15T11:12:10.134Z,3.07
2019-06-15T11:14:37.576Z,4.23
2019-06-15T11:17:05.811Z,3.73
2019-06-15T11:19:33.257Z,5.90
2019-06-15T11:22:01.892Z,5.70
2019-06-15T11:24:29.310Z,2.93
2019-06-15T11:26:56.773Z,4.40
2019-06-15T11:29:24.255Z,2.43
2019-06-15T11:31:51.743Z,3.90
2019-06-15T11:34:19.225Z,2.30
2019-06-15T11:36:47.436Z,2.87
2019-06-15T11:39:14.917Z,2.70
2019-06-15T11:41:43.502Z,2.70
2019-06-15T11:44:10.985Z,2.63
2019-06-15T11:46:39.208Z,2.03
2019-06-15T11:49:07.461Z,3.90
2019-06-15T11:51:34.928Z,2.97
2019-06-15T11:54:02.411Z,2.97
2019-06-15T11:56:29.895Z,2.90
2019-06-15T11:58:57.372Z,2.83
2019-06-15T12:01:24.831Z,3.37
2019-06-15T12:03:52.316Z,2.40
2019-06-15T12:06:19.948Z,2.37
2019-06-15T12:08:47.486Z,2.93
2019-06-15T12:11:14.872Z,3.30
2019-06-15T12:13:42.331Z,2.67
2019-06-15T12:16:09.781Z,2.33
2019-06-15T12:18:38.405Z,2.50
2019-06-15T12:21:05.884Z,3.60
2019-06-15T12:23:33.360Z,2.27
2019-06-15T12:26:00.828Z,4.80
2019-06-15T12:28:28.283Z,4.37
2019-06-15T12:30:56.893Z,2.90
2019-06-15T12:33:25.702Z,4.60
2019-06-15T12:35:54.490Z,2.10
2019-06-15T12:38:23.293Z,2.47
2019-06-15T12:40:52.091Z,2.03
2019-06-15T12:43:20.891Z,1.67
2019-06-15T12:45:49.686Z,2.60
2019-06-15T12:48:18.492Z,2.97
2019-06-15T12:50:47.285Z,2.20
2019-06-15T12:53:16.078Z,2.07
2019-06-15T12:55:43.537Z,2.57
2019-06-15T12:58:10.966Z,2.63
2019-06-15T13:00:38.419Z,2.10
2019-06-15T13:03:05.888Z,3.80
2019-06-15T13:05:33.335Z,4.50
2019-06-15T13:08:00.772Z,1.93
2019-06-15T13:10:28.234Z,2.40
2019-06-15T13:12:55.672Z,2.10
2019-06-15T13:15:24.248Z,1.90
2019-06-15T13:17:53.059Z,1.90
2019-06-15T13:20:21.879Z,2.53
2019-06-15T13:22:50.707Z,2.40
2019-06-15T13:25:18.152Z,1.70
2019-06-15T13:27:45.597Z,2.30
2019-06-15T13:30:15.158Z,1.83
2019-06-15T13:32:43.933Z,1.93
2019-06-15T13:35:12.540Z,2.27
2019-06-15T13:37:42.379Z,2.77
2019-06-15T13:40:08.227Z,2.53
2019-06-15T13:42:35.668Z,1.97
2019-06-15T13:45:04.369Z,1.77
2019-06-15T13:47:31.828Z,2.33
2019-06-15T13:49:59.301Z,1.80
2019-06-15T13:52:27.911Z,2.07
2019-06-15T13:54:56.730Z,2.23
2019-06-15T13:57:25.339Z,2.27
2019-06-15T13:59:53.937Z,1.57
2019-06-15T14:02:22.156Z,1.60
2019-06-15T14:04:49.694Z,2.57
2019-06-15T14:07:17.140Z,2.10
2019-06-15T14:09:45.386Z,3.33
2019-06-15T14:12:12.892Z,2.60
2019-06-15T14:14:40.374Z,1.63
2019-06-15T14:17:07.843Z,2.40
2019-06-15T14:19:35.289Z,2.23
2019-06-15T14:22:04.308Z,2.17
2019-06-15T14:24:31.776Z,2.07
2019-06-15T14:26:59.239Z,1.50
2019-06-15T14:29:26.699Z,1.57
2019-06-15T14:31:54.143Z,2.67
2019-06-15T14:34:21.695Z,1.97
2019-06-15T14:36:49.152Z,2.40
2019-06-15T14:39:16.614Z,1.73
2019-06-15T14:41:47.513Z,1.97
2019-06-15T14:44:11.660Z,1.50
2019-06-15T14:46:40.242Z,2.07
2019-06-15T14:49:07.708Z,1.87
2019-06-15T14:51:35.183Z,1.90
2019-06-15T14:54:02.657Z,1.77
2019-06-15T14:56:30.113Z,2.00
2019-06-15T14:58:57.579Z,1.60
2019-06-15T15:01:26.263Z,1.60
2019-06-15T15:03:53.666Z,1.37
2019-06-15T15:06:21.132Z,1.10
2019-06-15T15:08:49.745Z,1.77
2019-06-15T15:11:17.962Z,1.30
2019-06-15T15:13:47.152Z,2.00
2019-06-15T15:16:17.609Z,1.30
2019-06-15T15:18:42.693Z,1.47
2019-06-15T15:21:10.158Z,1.60
2019-06-15T15:23:37.623Z,1.30
2019-06-15T15:26:06.566Z,1.40
2019-06-15T15:28:32.760Z,1.57
2019-06-15T15:31:00.267Z,1.57
2019-06-15T15:33:28.861Z,1.50
2019-06-15T15:35:57.512Z,3.33
2019-06-15T15:38:24.984Z,1.23
2019-06-15T15:40:52.689Z,1.53
2019-06-15T15:43:20.921Z,1.60
2019-06-15T15:45:48.441Z,1.97
2019-06-15T15:48:20.071Z,1.60
2019-06-15T15:50:44.131Z,1.00
2019-06-15T15:53:11.594Z,1.47
2019-06-15T15:55:39.057Z,1.30
2019-06-15T15:58:06.882Z,1.20
2019-06-15T16:00:33.991Z,2.60
2019-06-15T16:03:02.239Z,2.83
2019-06-15T16:05:29.707Z,1.30
2019-06-15T16:07:57.175Z,1.37
2019-06-15T16:10:26.651Z,1.33
2019-06-15T16:12:52.879Z,1.40
2019-06-15T16:15:21.136Z,1.27
2019-06-15T16:17:48.614Z,1.07
2019-06-15T16:20:17.314Z,1.40
2019-06-15T16:22:45.966Z,1.83
2019-06-15T16:25:11.826Z,1.40
2019-06-15T16:27:40.069Z,1.20
2019-06-15T16:30:07.549Z,1.20
2019-06-15T16:32:37.292Z,1.10
2019-06-15T16:35:05.897Z,1.30
2019-06-15T16:37:33.342Z,1.17
2019-06-15T16:40:01.595Z,1.73
2019-06-15T16:42:29.053Z,2.20
2019-06-15T16:44:56.532Z,1.00
2019-06-15T16:47:24.011Z,1.50
2019-06-15T16:49:52.242Z,1.33
2019-06-15T16:52:19.709Z,1.07
2019-06-15T16:54:47.177Z,2.30
2019-06-15T16:57:16.095Z,0.93
2019-06-15T16:59:42.109Z,1.03
2019-06-15T17:02:10.339Z,1.43
2019-06-15T17:04:37.808Z,1.17
2019-06-15T17:07:07.067Z,0.77
2019-06-15T17:09:32.751Z,1.10
2019-06-15T17:12:00.217Z,1.37
2019-06-15T17:14:27.671Z,1.03
2019-06-15T17:16:56.695Z,1.00
2019-06-15T17:19:22.605Z,1.03
2019-06-15T17:21:50.073Z,1.17
2019-06-15T17:24:17.519Z,1.40
2019-06-15T17:26:46.839Z,1.70
2019-06-15T17:29:12.470Z,1.40
2019-06-15T17:31:39.926Z,1.40
2019-06-15T17:34:07.491Z,2.03
2019-06-15T17:36:36.821Z,6.73
2019-06-15T17:39:02.295Z,2.23
2019-06-15T17:41:29.779Z,2.20
2019-06-15T17:43:57.998Z,1.43
2019-06-15T17:46:29.728Z,2.50
2019-06-15T17:48:55.959Z,1.57
2019-06-15T17:51:21.188Z,3.40
2019-06-15T17:53:48.653Z,2.30
2019-06-15T17:56:16.393Z,2.27
2019-06-15T17:58:46.208Z,2.90
2019-06-15T18:01:11.320Z,4.12
2019-06-15T18:03:50.389Z,2.40
2019-06-15T18:06:06.273Z,1.80
2019-06-15T18:08:36.944Z,1.30
2019-06-15T18:11:01.966Z,8.70
2019-06-15T18:13:29.431Z,5.30
2019-06-15T18:15:56.886Z,2.67
2019-06-15T18:18:24.442Z,2.37
2019-06-15T18:20:51.841Z,2.37
2019-06-15T18:23:20.453Z,1.60
2019-06-15T18:25:47.935Z,2.67
2019-06-15T18:28:17.449Z,1.73
2019-06-15T18:30:42.900Z,2.30
2019-06-15T18:33:10.393Z,1.30
2019-06-15T18:35:37.848Z,2.10
2019-06-15T18:38:07.201Z,3.60
2019-06-15T18:40:32.765Z,1.70
2019-06-15T18:43:00.340Z,3.67
2019-06-15T18:45:27.821Z,1.70
2019-06-15T18:47:56.656Z,2.07
2019-06-15T18:50:26.670Z,2.03
2019-06-15T18:52:52.591Z,1.70
2019-06-15T18:55:20.042Z,4.40
2019-06-15T18:57:47.510Z,2.90
2019-06-15T19:00:16.664Z,1.67
2019-06-15T19:02:43.332Z,1.30
2019-06-15T19:05:10.795Z,1.50
2019-06-15T19:07:38.277Z,1.93
2019-06-15T19:10:07.211Z,1.10
2019-06-15T19:12:33.212Z,1.40
2019-06-15T19:15:01.469Z,1.50
2019-06-15T19:17:28.943Z,1.73
2019-06-15T19:19:57.527Z,1.83
2019-06-15T19:22:27.141Z,1.83
2019-06-15T19:24:53.279Z,1.33
2019-06-15T19:27:20.763Z,2.15
2019-06-15T19:29:49.003Z,1.73
2019-06-15T19:32:17.275Z,1.33
2019-06-15T19:34:47.765Z,1.57
2019-06-15T19:37:12.236Z,1.50
2019-06-15T19:39:40.599Z,3.10
2019-06-15T19:42:08.334Z,2.83
2019-06-15T19:44:37.037Z,2.67
2019-06-15T19:47:07.174Z,1.33
2019-06-15T19:49:36.315Z,1.30
2019-06-15T19:52:01.899Z,2.50
2019-06-15T19:54:29.394Z,2.07
2019-06-15T19:56:57.644Z,2.07
2019-06-15T19:59:26.282Z,2.40
2019-06-15T20:01:52.548Z,1.83
2019-06-15T20:04:21.163Z,1.93
2019-06-15T20:06:49.755Z,1.47
2019-06-15T20:09:17.235Z,1.90
2019-06-15T20:11:46.817Z,1.83
2019-06-15T20:14:12.946Z,2.33
2019-06-15T20:16:40.478Z,1.00
2019-06-15T20:19:07.944Z,1.50
2019-06-15T20:21:37.513Z,1.80
2019-06-15T20:24:06.103Z,1.00
2019-06-15T20:26:31.309Z,2.43
2019-06-15T20:28:59.034Z,1.40
2019-06-15T20:31:27.639Z,1.90
2019-06-15T20:33:57.013Z,2.67
2019-06-15T20:36:22.605Z,2.27
2019-06-15T20:38:50.852Z,1.83
2019-06-15T20:41:19.077Z,1.70
2019-06-15T20:43:47.305Z,1.80
2019-06-15T20:46:17.264Z,1.43
2019-06-15T20:48:42.977Z,2.07
2019-06-15T20:51:10.547Z,2.20
2019-06-15T20:53:39.064Z,1.40
2019-06-15T20:56:06.833Z,1.80
2019-06-15T20:58:36.977Z,2.60
2019-06-15T21:01:01.585Z,4.53
2019-06-15T21:03:29.083Z,2.40
2019-06-15T21:05:57.423Z,2.87
2019-06-15T21:08:26.573Z,1.30
2019-06-15T21:10:51.653Z,1.57
2019-06-15T21:13:19.937Z,1.40
2019-06-15T21:15:47.801Z,1.53
2019-06-15T21:18:15.644Z,3.73
2019-06-15T21:20:43.842Z,2.17
2019-06-15T21:23:12.452Z,6.20
2019-06-15T21:25:40.680Z,2.40
2019-06-15T21:28:08.151Z,3.87
2019-06-15T21:30:36.898Z,2.70
2019-06-15T21:33:06.814Z,3.90
2019-06-15T21:35:47.840Z,3.10
2019-06-15T21:38:00.350Z,4.60
2019-06-15T21:40:28.564Z,4.57
2019-06-15T21:42:56.392Z,4.33
2019-06-15T21:45:23.625Z,3.13
2019-06-15T21:47:51.102Z,2.87
2019-06-15T21:50:19.355Z,3.17
2019-06-15T21:52:46.812Z,3.63
2019-06-15T21:55:16.034Z,4.37
2019-06-15T21:57:41.875Z,3.80
2019-06-15T22:00:10.200Z,3.10
2019-06-15T22:02:37.656Z,4.97
2019-06-15T22:05:07.100Z,3.30
2019-06-15T22:07:33.758Z,3.70
2019-06-15T22:10:06.698Z,3.77
2019-06-15T22:12:36.517Z,5.57
2019-06-15T22:15:06.885Z,3.57
2019-06-15T22:17:33.055Z,3.80
2019-06-15T22:20:02.056Z,4.77
2019-06-15T22:22:29.492Z,4.17
2019-06-15T22:24:57.555Z,8.10
2019-06-15T22:27:25.187Z,8.43
2019-06-15T22:29:52.676Z,9.53
2019-06-15T22:32:21.287Z,7.10
2019-06-15T22:34:49.096Z,6.17
2019-06-15T22:37:17.357Z,7.97
2019-06-15T22:39:46.504Z,4.63
2019-06-15T22:42:11.546Z,7.50
2019-06-15T22:44:39.020Z,8.00
2019-06-15T22:47:06.970Z,6.33
2019-06-15T22:49:35.953Z,4.03
2019-06-15T22:52:02.604Z,4.93
2019-06-15T22:54:30.072Z,5.53
2019-06-15T22:56:57.555Z,6.70
2019-06-15T22:59:26.007Z,6.03
2019-06-15T23:01:52.449Z,6.17
2019-06-15T23:04:19.907Z,4.37
2019-06-15T23:06:48.245Z,4.73
2019-06-15T23:09:16.702Z,5.03
2019-06-15T23:11:42.322Z,4.53
2019-06-15T23:14:09.802Z,5.70
2019-06-15T23:16:38.394Z,4.50
2019-06-15T23:19:07.865Z,3.60
2019-06-15T23:21:34.153Z,5.10
2019-06-15T23:24:01.656Z,5.70
2019-06-15T23:26:29.141Z,4.47
2019-06-15T23:28:56.640Z,3.87
2019-06-15T23:31:24.823Z,3.27
2019-06-15T23:33:53.073Z,3.57
2019-06-15T23:36:20.529Z,3.07
2019-06-15T23:38:48.012Z,4.10
2019-06-15T23:41:16.436Z,3.47
2019-06-15T23:43:46.286Z,3.53
2019-06-15T23:46:11.218Z,6.23
2019-06-15T23:48:39.445Z,4.47
2019-06-15T23:51:08.055Z,3.87
2019-06-15T23:53:36.780Z,5.20
2019-06-15T23:56:06.356Z,5.78
2019-06-15T23:58:31.729Z,7.30
